createdAt,value
2017-09-16T00:00:15.089Z,1006.51
2017-09-16T00:01:15.110Z,1006.5
2017-09-16T00:02:15.129Z,1006.51
2017-09-16T00:03:15.150Z,1006.49
2017-09-16T00:04:15.169Z,1006.52
2017-09-16T00:05:15.189Z,1006.43
2017-09-16T00:06:15.211Z,1006.45
2017-09-16T00:07:15.230Z,1006.46
2017-09-16T00:08:15.249Z,1006.49
2017-09-16T00:09:15.271Z,1006.49
2017-09-16T00:10:15.291Z,1006.48
2017-09-16T00:11:15.309Z,1006.49
2017-09-16T00:13:15.350Z,1006.49
2017-09-16T00:14:15.371Z,1006.49
2017-09-16T00:15:15.390Z,1006.46
2017-09-16T00:16:15.411Z,1006.49
2017-09-16T00:17:15.431Z,1006.44
2017-09-16T00:18:15.450Z,1006.44
2017-09-16T00:19:15.471Z,1006.42
2017-09-16T00:20:15.491Z,1006.41
2017-09-16T00:21:15.512Z,1006.37
2017-09-16T00:22:15.530Z,1006.36
2017-09-16T00:23:15.552Z,1006.39
2017-09-16T00:24:15.571Z,1006.36
2017-09-16T00:25:15.592Z,1006.38
2017-09-16T00:26:15.612Z,1006.35
2017-09-16T00:28:15.653Z,1006.34
2017-09-16T00:29:15.671Z,1006.36
2017-09-16T00:30:15.691Z,1006.34
2017-09-16T00:31:15.711Z,1006.32
2017-09-16T00:32:15.733Z,1006.31
2017-09-16T00:33:15.751Z,1006.3
2017-09-16T00:34:15.772Z,1006.31
2017-09-16T00:35:15.794Z,1006.28
2017-09-16T00:36:15.811Z,1006.28
2017-09-16T00:37:15.831Z,1006.29
2017-09-16T00:38:15.852Z,1006.26
2017-09-16T00:39:15.872Z,1006.24
2017-09-16T00:40:15.890Z,1006.22
2017-09-16T00:41:15.914Z,1006.25
2017-09-16T00:42:15.932Z,1006.24
2017-09-16T00:43:15.952Z,1006.28
2017-09-16T00:44:15.972Z,1006.27
2017-09-16T00:45:15.990Z,1006.25
2017-09-16T00:46:16.010Z,1006.31
2017-09-16T00:47:16.030Z,1006.28
2017-09-16T00:48:16.050Z,1006.27
2017-09-16T00:49:16.069Z,1006.29
2017-09-16T00:50:16.089Z,1006.29
2017-09-16T00:51:16.109Z,1006.27
2017-09-16T00:52:16.130Z,1006.28
2017-09-16T00:53:16.148Z,1006.25
2017-09-16T00:54:16.170Z,1006.28
2017-09-16T00:55:16.188Z,1006.24
2017-09-16T00:56:16.209Z,1006.27
2017-09-16T00:57:16.228Z,1006.24
2017-09-16T00:58:16.246Z,1006.21
2017-09-16T01:00:16.288Z,1006.19
2017-09-16T01:01:16.307Z,1006.17
2017-09-16T01:02:16.327Z,1006.18
2017-09-16T01:03:16.345Z,1006.17
2017-09-16T01:04:16.416Z,1006.21
2017-09-16T01:05:16.386Z,1006.2
2017-09-16T01:06:16.404Z,1006.17
2017-09-16T01:07:16.425Z,1006.14
2017-09-16T01:08:16.446Z,1006.16
2017-09-16T01:09:16.465Z,1006.15
2017-09-16T01:10:16.484Z,1006.16
2017-09-16T01:11:16.504Z,1006.15
2017-09-16T01:12:16.523Z,1006.15
2017-09-16T01:13:16.542Z,1006.19
2017-09-16T01:14:16.563Z,1006.21
2017-09-16T01:16:16.602Z,1006.13
2017-09-16T01:17:16.625Z,1006.2
2017-09-16T01:18:16.642Z,1006.19
2017-09-16T01:19:16.661Z,1006.19
2017-09-16T01:20:16.680Z,1006.21
2017-09-16T01:21:16.701Z,1006.22
2017-09-16T01:22:16.720Z,1006.26
2017-09-16T01:23:16.739Z,1006.26
2017-09-16T01:24:16.760Z,1006.21
2017-09-16T01:25:16.778Z,1006.24
2017-09-16T01:26:16.799Z,1006.25
2017-09-16T01:27:16.819Z,1006.23
2017-09-16T01:28:16.837Z,1006.23
2017-09-16T01:29:16.857Z,1006.26
2017-09-16T01:30:16.877Z,1006.25
2017-09-16T01:32:16.967Z,1006.23
2017-09-16T01:33:16.937Z,1006.22
2017-09-16T01:34:16.956Z,1006.21
2017-09-16T01:35:16.975Z,1006.2
2017-09-16T01:36:16.994Z,1006.17
2017-09-16T01:37:17.014Z,1006.17
2017-09-16T01:38:17.037Z,1006.22
2017-09-16T01:39:17.054Z,1006.17
2017-09-16T01:40:17.073Z,1006.2
2017-09-16T01:41:17.094Z,1006.19
2017-09-16T01:42:17.112Z,1006.15
2017-09-16T01:43:17.131Z,1006.16
2017-09-16T01:44:17.151Z,1006.18
2017-09-16T01:45:17.171Z,1006.14
2017-09-16T01:46:17.191Z,1006.16
2017-09-16T01:48:17.230Z,1006.12
2017-09-16T01:49:17.250Z,1006.13
2017-09-16T01:50:17.268Z,1006.11
2017-09-16T01:51:17.289Z,1006.17
2017-09-16T01:52:17.309Z,1006.14
2017-09-16T01:53:17.326Z,1006.15
2017-09-16T01:54:17.346Z,1006.14
2017-09-16T01:55:17.367Z,1006.18
2017-09-16T01:56:17.387Z,1006.17
2017-09-16T01:57:17.405Z,1006.2
2017-09-16T01:58:17.428Z,1006.21
2017-09-16T01:59:17.445Z,1006.21
2017-09-16T02:00:17.464Z,1006.2
2017-09-16T02:01:17.484Z,1006.16
2017-09-16T02:03:17.525Z,1006.17
2017-09-16T02:04:17.544Z,1006.15
2017-09-16T02:05:17.563Z,1006.11
2017-09-16T02:06:17.583Z,1006.16
2017-09-16T02:07:17.602Z,1006.1
2017-09-16T02:08:17.622Z,1006.16
2017-09-16T02:09:17.641Z,1006.19
2017-09-16T02:10:17.662Z,1006.18
2017-09-16T02:11:17.679Z,1006.14
2017-09-16T02:12:17.700Z,1006.17
2017-09-16T02:13:17.719Z,1006.13
2017-09-16T02:14:17.739Z,1006.18
2017-09-16T02:15:17.758Z,1006.15
2017-09-16T02:16:17.778Z,1006.14
2017-09-16T02:17:17.797Z,1006.15
2017-09-16T02:18:17.816Z,1006.16
2017-09-16T02:19:17.838Z,1006.15
2017-09-16T02:20:17.855Z,1006.12
2017-09-16T02:21:17.876Z,1006.09
2017-09-16T02:22:17.894Z,1006.14
2017-09-16T02:23:17.913Z,1006.14
2017-09-16T02:24:17.933Z,1006.16
2017-09-16T02:25:17.952Z,1006.14
2017-09-16T02:26:17.971Z,1006.16
2017-09-16T02:27:17.991Z,1006.17
2017-09-16T02:28:18.011Z,1006.18
2017-09-16T02:29:18.030Z,1006.19
2017-09-16T02:30:18.050Z,1006.17
2017-09-16T02:31:18.070Z,1006.17
2017-09-16T02:32:18.088Z,1006.17
2017-09-16T02:33:18.107Z,1006.14
2017-09-16T02:35:18.147Z,1006.15
2017-09-16T02:36:18.166Z,1006.14
2017-09-16T02:37:18.195Z,1006.13
2017-09-16T02:38:18.204Z,1006.18
2017-09-16T02:39:18.223Z,1006.19
2017-09-16T02:40:18.244Z,1006.18
2017-09-16T02:41:18.264Z,1006.18
2017-09-16T02:42:18.282Z,1006.18
2017-09-16T02:43:18.308Z,1006.17
2017-09-16T02:44:18.320Z,1006.18
2017-09-16T02:45:18.341Z,1006.17
2017-09-16T02:46:18.358Z,1006.23
2017-09-16T02:47:18.379Z,1006.23
2017-09-16T02:48:18.396Z,1006.23
2017-09-16T02:49:18.417Z,1006.23
2017-09-16T02:51:18.455Z,1006.2
2017-09-16T02:52:18.474Z,1006.23
2017-09-16T02:53:18.493Z,1006.2
2017-09-16T02:54:18.514Z,1006.17
2017-09-16T02:55:18.531Z,1006.15
2017-09-16T02:56:18.552Z,1006.14
2017-09-16T02:57:18.570Z,1006.13
2017-09-16T02:58:18.591Z,1006.11
2017-09-16T02:59:18.611Z,1006.1
2017-09-16T03:00:18.628Z,1006.09
2017-09-16T03:01:18.647Z,1006.11
2017-09-16T03:02:18.667Z,1006.08
2017-09-16T03:03:18.686Z,1006.09
2017-09-16T03:04:18.705Z,1006.1
2017-09-16T03:05:18.725Z,1006.17
2017-09-16T03:07:18.762Z,1006.13
2017-09-16T03:08:18.782Z,1006.15
2017-09-16T03:09:18.800Z,1006.14
2017-09-16T03:10:18.819Z,1006.15
2017-09-16T03:11:18.838Z,1006.15
2017-09-16T03:12:18.858Z,1006.2
2017-09-16T03:13:18.878Z,1006.15
2017-09-16T03:14:18.895Z,1006.14
2017-09-16T03:15:18.915Z,1006.13
2017-09-16T03:16:18.936Z,1006.13
2017-09-16T03:17:18.954Z,1006.15
2017-09-16T03:18:18.972Z,1006.12
2017-09-16T03:19:18.992Z,1006.13
2017-09-16T03:20:19.011Z,1006.15
2017-09-16T03:21:19.029Z,1006.15
2017-09-16T03:23:19.068Z,1006.12
2017-09-16T03:24:19.088Z,1006.13
2017-09-16T03:25:19.106Z,1006.14
2017-09-16T03:26:19.125Z,1006.12
2017-09-16T03:27:19.144Z,1006.13
2017-09-16T03:28:19.163Z,1006.15
2017-09-16T03:29:19.182Z,1006.11
2017-09-16T03:30:19.230Z,1006.1
2017-09-16T03:31:19.221Z,1006.13
2017-09-16T03:32:19.240Z,1006.16
2017-09-16T03:33:19.258Z,1006.19
2017-09-16T03:34:19.279Z,1006.22
2017-09-16T03:35:19.297Z,1006.21
2017-09-16T03:36:19.366Z,1006.19
2017-09-16T03:38:19.355Z,1006.22
2017-09-16T03:39:19.374Z,1006.22
2017-09-16T03:40:19.393Z,1006.19
2017-09-16T03:41:19.412Z,1006.22
2017-09-16T03:42:19.431Z,1006.16
2017-09-16T03:43:19.449Z,1006.18
2017-09-16T03:44:19.468Z,1006.19
2017-09-16T03:45:19.487Z,1006.21
2017-09-16T03:46:19.506Z,1006.21
2017-09-16T03:47:19.525Z,1006.18
2017-09-16T03:48:19.545Z,1006.2
2017-09-16T03:49:19.564Z,1006.19
2017-09-16T03:50:19.581Z,1006.21
2017-09-16T03:51:19.601Z,1006.15
2017-09-16T03:52:19.620Z,1006.2
2017-09-16T03:53:19.640Z,1006.16
2017-09-16T03:54:19.657Z,1006.15
2017-09-16T03:55:19.677Z,1006.06
2017-09-16T03:56:19.696Z,1006.13
2017-09-16T03:57:19.714Z,1006.11
2017-09-16T03:58:19.734Z,1006.12
2017-09-16T03:59:19.753Z,1006.07
2017-09-16T04:00:19.771Z,1006.03
2017-09-16T04:01:19.789Z,1006.02
2017-09-16T04:02:19.810Z,1006
2017-09-16T04:03:19.829Z,1005.99
2017-09-16T04:04:19.847Z,1006.04
2017-09-16T04:05:19.865Z,1006.05
2017-09-16T04:06:19.885Z,1006.07
2017-09-16T04:07:19.903Z,1006.09
2017-09-16T04:08:19.921Z,1006.09
2017-09-16T04:10:19.961Z,1006.11
2017-09-16T04:11:19.984Z,1006.14
2017-09-16T04:12:19.998Z,1006.13
2017-09-16T04:13:20.016Z,1006.1
2017-09-16T04:14:20.036Z,1006.12
2017-09-16T04:15:20.055Z,1006.1
2017-09-16T04:16:20.072Z,1006.05
2017-09-16T04:17:20.091Z,1006.1
2017-09-16T04:18:20.110Z,1006.11
2017-09-16T04:19:20.129Z,1006.1
2017-09-16T04:20:20.148Z,1006.14
2017-09-16T04:21:20.166Z,1006.17
2017-09-16T04:22:20.185Z,1006.18
2017-09-16T04:23:20.203Z,1006.2
2017-09-16T04:24:20.222Z,1006.23
2017-09-16T04:26:20.262Z,1006.23
2017-09-16T04:27:20.280Z,1006.22
2017-09-16T04:28:20.298Z,1006.25
2017-09-16T04:29:20.317Z,1006.26
2017-09-16T04:30:20.336Z,1006.26
2017-09-16T04:31:20.354Z,1006.26
2017-09-16T04:32:20.374Z,1006.28
2017-09-16T04:33:20.393Z,1006.32
2017-09-16T04:34:20.410Z,1006.29
2017-09-16T04:35:20.430Z,1006.28
2017-09-16T04:36:20.448Z,1006.31
2017-09-16T04:37:20.468Z,1006.28
2017-09-16T04:38:20.485Z,1006.3
2017-09-16T04:39:20.504Z,1006.35
2017-09-16T04:40:20.524Z,1006.33
2017-09-16T04:42:20.560Z,1006.36
2017-09-16T04:43:20.579Z,1006.32
2017-09-16T04:44:20.597Z,1006.38
2017-09-16T04:45:20.616Z,1006.39
2017-09-16T04:46:20.635Z,1006.38
2017-09-16T04:47:20.654Z,1006.38
2017-09-16T04:48:20.674Z,1006.34
2017-09-16T04:49:20.691Z,1006.37
2017-09-16T04:50:20.710Z,1006.38
2017-09-16T04:51:20.729Z,1006.37
2017-09-16T04:52:20.747Z,1006.46
2017-09-16T04:53:20.765Z,1006.42
2017-09-16T04:54:20.785Z,1006.43
2017-09-16T04:55:20.804Z,1006.4
2017-09-16T04:56:20.821Z,1006.38
2017-09-16T04:58:20.861Z,1006.36
2017-09-16T04:59:20.878Z,1006.4
2017-09-16T05:00:20.896Z,1006.33
2017-09-16T05:01:20.915Z,1006.36
2017-09-16T05:02:20.935Z,1006.36
2017-09-16T05:03:20.952Z,1006.33
2017-09-16T05:04:20.973Z,1006.31
2017-09-16T05:05:20.990Z,1006.34
2017-09-16T05:06:21.009Z,1006.34
2017-09-16T05:07:21.027Z,1006.31
2017-09-16T05:08:21.047Z,1006.35
2017-09-16T05:09:21.066Z,1006.35
2017-09-16T05:10:21.087Z,1006.34
2017-09-16T05:11:21.103Z,1006.34
2017-09-16T05:13:21.142Z,1006.37
2017-09-16T05:14:21.160Z,1006.35
2017-09-16T05:15:21.201Z,1006.4
2017-09-16T05:16:21.197Z,1006.4
2017-09-16T05:17:21.217Z,1006.41
2017-09-16T05:18:21.234Z,1006.35
2017-09-16T05:19:21.254Z,1006.4
2017-09-16T05:20:21.272Z,1006.44
2017-09-16T05:21:21.292Z,1006.42
2017-09-16T05:22:21.310Z,1006.42
2017-09-16T05:23:21.329Z,1006.4
2017-09-16T05:24:21.349Z,1006.45
2017-09-16T05:25:21.367Z,1006.46
2017-09-16T05:26:21.386Z,1006.5
2017-09-16T05:27:21.405Z,1006.46
2017-09-16T05:28:21.424Z,1006.51
2017-09-16T05:29:21.441Z,1006.51
2017-09-16T05:30:21.465Z,1006.5
2017-09-16T05:31:21.480Z,1006.48
2017-09-16T05:32:21.499Z,1006.46
2017-09-16T05:33:21.519Z,1006.5
2017-09-16T05:34:21.538Z,1006.48
2017-09-16T05:35:21.556Z,1006.48
2017-09-16T05:36:21.575Z,1006.48
2017-09-16T05:37:21.594Z,1006.5
2017-09-16T05:38:21.613Z,1006.47
2017-09-16T05:39:21.632Z,1006.51
2017-09-16T05:40:21.651Z,1006.47
2017-09-16T05:41:21.671Z,1006.44
2017-09-16T05:42:21.690Z,1006.49
2017-09-16T05:43:21.708Z,1006.47
2017-09-16T05:45:21.748Z,1006.51
2017-09-16T05:46:21.766Z,1006.5
2017-09-16T05:47:21.784Z,1006.48
2017-09-16T05:48:21.809Z,1006.53
2017-09-16T05:49:21.824Z,1006.56
2017-09-16T05:50:21.844Z,1006.55
2017-09-16T05:51:21.862Z,1006.52
2017-09-16T05:52:21.881Z,1006.57
2017-09-16T05:53:21.901Z,1006.6
2017-09-16T05:54:21.920Z,1006.8
2017-09-16T05:55:21.940Z,1006.9
2017-09-16T05:56:21.959Z,1006.93
2017-09-16T05:57:21.980Z,1006.95
2017-09-16T05:58:21.999Z,1006.97
2017-09-16T05:59:22.020Z,1006.97
2017-09-16T06:01:22.090Z,1007.02
2017-09-16T06:02:22.085Z,1007.01
2017-09-16T06:03:22.108Z,1006.99
2017-09-16T06:04:22.133Z,1007.03
2017-09-16T06:05:22.154Z,1007.03
2017-09-16T06:06:22.186Z,1007.07
2017-09-16T06:07:22.203Z,1007.09
2017-09-16T06:08:22.227Z,1007.19
2017-09-16T06:09:22.250Z,1007.23
2017-09-16T06:10:22.276Z,1007.23
2017-09-16T06:11:22.302Z,1007.3
2017-09-16T06:12:22.326Z,1007.41
2017-09-16T06:13:22.352Z,1007.44
2017-09-16T06:14:22.377Z,1007.52
2017-09-16T06:15:22.402Z,1007.54
2017-09-16T06:17:22.454Z,1007.65
2017-09-16T06:18:22.484Z,1007.63
2017-09-16T06:19:22.532Z,1007.65
2017-09-16T06:20:22.534Z,1007.7
2017-09-16T06:21:22.562Z,1007.68
2017-09-16T06:22:22.590Z,1007.77
2017-09-16T06:23:22.617Z,1007.8
2017-09-16T06:24:22.645Z,1007.84
2017-09-16T06:25:22.672Z,1007.81
2017-09-16T06:26:22.701Z,1007.87
2017-09-16T06:27:22.728Z,1007.93
2017-09-16T06:28:22.758Z,1007.89
2017-09-16T06:29:22.786Z,1007.91
2017-09-16T06:30:22.815Z,1007.96
2017-09-16T06:31:22.844Z,1007.98
2017-09-16T06:33:22.902Z,1007.93
2017-09-16T06:34:22.932Z,1007.97
2017-09-16T06:35:22.961Z,1007.97
2017-09-16T06:36:22.990Z,1007.99
2017-09-16T06:37:23.020Z,1008.02
2017-09-16T06:38:23.051Z,1008.06
2017-09-16T06:39:23.080Z,1008.08
2017-09-16T06:40:23.111Z,1008.08
2017-09-16T06:41:23.141Z,1008.12
2017-09-16T06:42:23.171Z,1008.15
2017-09-16T06:43:23.202Z,1008.18
2017-09-16T06:44:23.234Z,1008.12
2017-09-16T06:45:23.265Z,1008.17
2017-09-16T06:46:23.296Z,1008.12
2017-09-16T06:48:23.357Z,1008.06
2017-09-16T06:49:23.389Z,1008.06
2017-09-16T06:50:23.421Z,1008.04
2017-09-16T06:51:23.453Z,1008.11
2017-09-16T06:52:23.484Z,1008.1
2017-09-16T06:53:23.514Z,1008.09
2017-09-16T06:54:23.547Z,1008.15
2017-09-16T06:55:23.577Z,1008.18
2017-09-16T06:56:23.609Z,1008.2
2017-09-16T06:57:23.642Z,1008.25
2017-09-16T06:58:23.674Z,1008.29
2017-09-16T06:59:23.706Z,1008.28
2017-09-16T07:00:23.767Z,1008.27
2017-09-16T07:01:23.768Z,1008.27
2017-09-16T07:02:23.803Z,1008.26
2017-09-16T07:03:23.833Z,1008.24
2017-09-16T07:04:23.866Z,1008.25
2017-09-16T07:05:23.897Z,1008.3
2017-09-16T07:06:23.931Z,1008.3
2017-09-16T07:07:23.966Z,1008.28
2017-09-16T07:08:23.993Z,1008.31
2017-09-16T07:09:24.027Z,1008.32
2017-09-16T07:10:24.059Z,1008.3
2017-09-16T07:11:24.091Z,1008.29
2017-09-16T07:12:24.123Z,1008.32
2017-09-16T07:13:24.157Z,1008.3
2017-09-16T07:14:24.190Z,1008.29
2017-09-16T07:15:24.220Z,1008.29
2017-09-16T07:16:24.253Z,1008.28
2017-09-16T07:17:24.287Z,1008.3
2017-09-16T07:18:24.318Z,1008.28
2017-09-16T07:20:24.383Z,1008.28
2017-09-16T07:21:24.415Z,1008.23
2017-09-16T07:22:24.448Z,1008.18
2017-09-16T07:23:24.481Z,1008.19
2017-09-16T07:24:24.513Z,1008.15
2017-09-16T07:25:24.547Z,1008.13
2017-09-16T07:26:24.602Z,1008.13
2017-09-16T07:27:24.610Z,1008.13
2017-09-16T07:28:24.645Z,1008.16
2017-09-16T07:29:24.674Z,1008.12
2017-09-16T07:30:24.708Z,1008.11
2017-09-16T07:31:24.741Z,1008.1
2017-09-16T07:32:24.773Z,1008.04
2017-09-16T07:33:24.805Z,1008.03
2017-09-16T07:34:24.837Z,1007.98
2017-09-16T07:36:24.903Z,1007.93
2017-09-16T07:37:24.933Z,1007.92
2017-09-16T07:38:24.965Z,1007.94
2017-09-16T07:39:24.999Z,1007.97
2017-09-16T07:40:25.029Z,1008.01
2017-09-16T07:41:25.062Z,1007.99
2017-09-16T07:42:25.095Z,1007.98
2017-09-16T07:43:25.126Z,1007.8
2017-09-16T07:44:25.158Z,1007.71
2017-09-16T07:45:25.191Z,1007.63
2017-09-16T07:46:25.222Z,1007.63
2017-09-16T07:47:25.254Z,1007.62
2017-09-16T07:48:25.285Z,1007.62
2017-09-16T07:49:25.319Z,1007.57
2017-09-16T07:50:25.350Z,1007.62
2017-09-16T07:52:25.413Z,1007.6
2017-09-16T07:53:25.445Z,1007.58
2017-09-16T07:54:25.476Z,1007.6
2017-09-16T07:55:25.506Z,1007.62
2017-09-16T07:56:25.539Z,1007.6
2017-09-16T07:57:25.571Z,1007.63
2017-09-16T07:58:25.603Z,1007.65
2017-09-16T07:59:25.632Z,1007.66
2017-09-16T08:00:25.664Z,1007.69
2017-09-16T08:01:25.696Z,1007.69
2017-09-16T08:02:25.726Z,1007.7
2017-09-16T08:03:25.758Z,1007.71
2017-09-16T08:04:25.789Z,1007.8
2017-09-16T08:05:25.821Z,1007.77
2017-09-16T08:06:25.852Z,1007.8
2017-09-16T08:08:25.914Z,1007.81
2017-09-16T08:09:25.946Z,1007.88
2017-09-16T08:10:25.976Z,1007.88
2017-09-16T08:11:26.007Z,1007.88
2017-09-16T08:12:26.037Z,1007.87
2017-09-16T08:13:26.068Z,1007.93
2017-09-16T08:14:26.099Z,1007.94
2017-09-16T08:15:26.129Z,1007.91
2017-09-16T08:16:26.161Z,1007.93
2017-09-16T08:17:26.191Z,1007.92
2017-09-16T08:18:26.221Z,1007.93
2017-09-16T08:19:26.252Z,1007.97
2017-09-16T08:20:26.282Z,1008.02
2017-09-16T08:21:26.312Z,1007.98
2017-09-16T08:23:26.375Z,1007.99
2017-09-16T08:24:26.402Z,1007.94
2017-09-16T08:25:26.434Z,1007.95
2017-09-16T08:26:26.463Z,1007.94
2017-09-16T08:27:26.497Z,1007.91
2017-09-16T08:28:26.522Z,1007.89
2017-09-16T08:29:26.552Z,1007.89
2017-09-16T08:30:26.582Z,1007.81
2017-09-16T08:31:26.610Z,1007.82
2017-09-16T08:32:26.641Z,1007.79
2017-09-16T08:33:26.671Z,1007.75
2017-09-16T08:34:26.702Z,1007.8
2017-09-16T08:35:26.729Z,1007.76
2017-09-16T08:36:26.760Z,1007.8
2017-09-16T08:37:26.787Z,1007.8
2017-09-16T08:38:26.817Z,1007.79
2017-09-16T08:39:26.847Z,1007.79
2017-09-16T08:40:26.875Z,1007.8
2017-09-16T08:41:26.906Z,1007.75
2017-09-16T08:42:26.933Z,1007.78
2017-09-16T08:43:26.964Z,1007.78
2017-09-16T08:44:26.992Z,1007.76
2017-09-16T08:45:27.023Z,1007.71
2017-09-16T08:46:27.051Z,1007.77
2017-09-16T08:47:27.079Z,1007.77
2017-09-16T08:48:27.109Z,1007.71
2017-09-16T08:49:27.139Z,1007.76
2017-09-16T08:50:27.169Z,1007.75
2017-09-16T08:51:27.197Z,1007.76
2017-09-16T08:52:27.227Z,1007.74
2017-09-16T08:53:27.256Z,1007.74
2017-09-16T08:55:27.315Z,1007.78
2017-09-16T08:56:27.346Z,1007.81
2017-09-16T08:57:27.373Z,1007.79
2017-09-16T08:58:27.403Z,1007.83
2017-09-16T08:59:27.433Z,1007.75
2017-09-16T09:00:27.463Z,1007.78
2017-09-16T09:01:27.492Z,1007.78
2017-09-16T09:02:27.521Z,1007.79
2017-09-16T09:03:27.550Z,1007.76
2017-09-16T09:04:27.580Z,1007.77
2017-09-16T09:05:27.609Z,1007.77
2017-09-16T09:06:27.637Z,1007.76
2017-09-16T09:07:27.666Z,1007.75
2017-09-16T09:08:27.695Z,1007.75
2017-09-16T09:09:27.725Z,1007.72
2017-09-16T09:11:27.783Z,1007.75
2017-09-16T09:12:27.811Z,1007.76
2017-09-16T09:13:27.841Z,1007.77
2017-09-16T09:14:27.870Z,1007.75
2017-09-16T09:15:27.899Z,1007.78
2017-09-16T09:16:27.929Z,1007.8
2017-09-16T09:17:27.957Z,1007.8
2017-09-16T09:18:27.986Z,1007.88
2017-09-16T09:19:28.015Z,1007.88
2017-09-16T09:20:28.044Z,1007.88
2017-09-16T09:21:28.073Z,1007.93
2017-09-16T09:22:28.103Z,1007.91
2017-09-16T09:23:28.131Z,1007.9
2017-09-16T09:24:28.210Z,1007.91
2017-09-16T09:25:28.188Z,1007.9
2017-09-16T09:27:28.245Z,1007.85
2017-09-16T09:28:28.275Z,1007.86
2017-09-16T09:29:28.306Z,1007.86
2017-09-16T09:30:28.332Z,1007.81
2017-09-16T09:31:28.361Z,1007.81
2017-09-16T09:32:28.390Z,1007.76
2017-09-16T09:33:28.418Z,1007.76
2017-09-16T09:34:28.447Z,1007.77
2017-09-16T09:35:28.475Z,1007.77
2017-09-16T09:36:28.503Z,1007.79
2017-09-16T09:37:28.532Z,1007.78
2017-09-16T09:38:28.560Z,1007.8
2017-09-16T09:39:28.590Z,1007.79
2017-09-16T09:40:28.618Z,1007.85
2017-09-16T09:41:28.646Z,1007.81
2017-09-16T09:43:28.702Z,1007.92
2017-09-16T09:44:28.732Z,1007.9
2017-09-16T09:45:28.759Z,1007.96
2017-09-16T09:46:28.789Z,1007.95
2017-09-16T09:47:28.817Z,1007.98
2017-09-16T09:48:28.845Z,1008
2017-09-16T09:49:28.873Z,1007.95
2017-09-16T09:50:28.903Z,1007.99
2017-09-16T09:51:28.933Z,1007.96
2017-09-16T09:52:28.958Z,1007.96
2017-09-16T09:53:28.987Z,1007.94
2017-09-16T09:54:29.015Z,1007.93
2017-09-16T09:55:29.044Z,1007.9
2017-09-16T09:56:29.073Z,1007.91
2017-09-16T09:58:29.130Z,1007.85
2017-09-16T09:59:29.159Z,1007.87
2017-09-16T10:00:29.185Z,1007.84
2017-09-16T10:01:29.215Z,1007.87
2017-09-16T10:02:29.243Z,1007.89
2017-09-16T10:03:29.270Z,1007.93
2017-09-16T10:04:29.300Z,1007.94
2017-09-16T10:05:29.328Z,1007.99
2017-09-16T10:06:29.354Z,1007.94
2017-09-16T10:07:29.387Z,1007.98
2017-09-16T10:08:29.413Z,1007.93
2017-09-16T10:09:29.440Z,1007.96
2017-09-16T10:10:29.468Z,1007.94
2017-09-16T10:11:29.498Z,1007.9
2017-09-16T10:12:29.525Z,1007.91
2017-09-16T10:13:29.554Z,1007.9
2017-09-16T10:14:29.582Z,1007.91
2017-09-16T10:15:29.610Z,1007.89
2017-09-16T10:16:29.640Z,1007.84
2017-09-16T10:17:29.665Z,1007.83
2017-09-16T10:18:29.695Z,1007.83
2017-09-16T10:19:29.723Z,1007.81
2017-09-16T10:20:29.750Z,1007.83
2017-09-16T10:21:29.779Z,1007.81
2017-09-16T10:22:29.807Z,1007.84
2017-09-16T10:23:29.835Z,1007.79
2017-09-16T10:24:29.863Z,1007.8
2017-09-16T10:25:29.891Z,1007.8
2017-09-16T10:26:29.919Z,1007.78
2017-09-16T10:27:29.946Z,1007.77
2017-09-16T10:28:29.974Z,1007.74
2017-09-16T10:30:30.029Z,1007.7
2017-09-16T10:31:30.057Z,1007.7
2017-09-16T10:32:30.084Z,1007.72
2017-09-16T10:33:30.110Z,1007.71
2017-09-16T10:34:30.139Z,1007.72
2017-09-16T10:35:30.166Z,1007.71
2017-09-16T10:36:30.192Z,1007.67
2017-09-16T10:37:30.219Z,1007.66
2017-09-16T10:38:30.246Z,1007.68
2017-09-16T10:39:30.273Z,1007.67
2017-09-16T10:40:30.299Z,1007.64
2017-09-16T10:41:30.327Z,1007.69
2017-09-16T10:42:30.355Z,1007.67
2017-09-16T10:43:30.380Z,1007.7
2017-09-16T10:44:30.407Z,1007.65
2017-09-16T10:46:30.461Z,1007.69
2017-09-16T10:47:30.487Z,1007.68
2017-09-16T10:48:30.518Z,1007.7
2017-09-16T10:49:30.542Z,1007.68
2017-09-16T10:50:30.567Z,1007.71
2017-09-16T10:51:30.595Z,1007.76
2017-09-16T10:52:30.621Z,1007.73
2017-09-16T10:53:30.647Z,1007.74
2017-09-16T10:54:30.674Z,1007.77
2017-09-16T10:55:30.699Z,1007.79
2017-09-16T10:56:30.726Z,1007.79
2017-09-16T10:57:30.752Z,1007.78
2017-09-16T10:58:30.797Z,1007.78
2017-09-16T10:59:30.805Z,1007.77
2017-09-16T11:00:30.831Z,1007.79
2017-09-16T11:02:30.883Z,1007.73
2017-09-16T11:03:30.909Z,1007.73
2017-09-16T11:04:30.937Z,1007.71
2017-09-16T11:05:30.963Z,1007.72
2017-09-16T11:06:30.989Z,1007.68
2017-09-16T11:07:31.014Z,1007.72
2017-09-16T11:08:31.040Z,1007.72
2017-09-16T11:09:31.067Z,1007.7
2017-09-16T11:10:31.092Z,1007.69
2017-09-16T11:11:31.120Z,1007.66
2017-09-16T11:12:31.145Z,1007.71
2017-09-16T11:13:31.171Z,1007.7
2017-09-16T11:14:31.197Z,1007.71
2017-09-16T11:15:31.224Z,1007.68
2017-09-16T11:16:31.248Z,1007.63
2017-09-16T11:18:31.300Z,1007.67
2017-09-16T11:19:31.326Z,1007.63
2017-09-16T11:20:31.352Z,1007.62
2017-09-16T11:21:31.377Z,1007.63
2017-09-16T11:22:31.403Z,1007.65
2017-09-16T11:23:31.428Z,1007.68
2017-09-16T11:24:31.454Z,1007.68
2017-09-16T11:25:31.480Z,1007.68
2017-09-16T11:26:31.508Z,1007.68
2017-09-16T11:27:31.532Z,1007.63
2017-09-16T11:28:31.558Z,1007.67
2017-09-16T11:29:31.583Z,1007.67
2017-09-16T11:30:31.610Z,1007.63
2017-09-16T11:31:31.635Z,1007.67
2017-09-16T11:33:31.690Z,1007.57
2017-09-16T11:34:31.712Z,1007.59
2017-09-16T11:35:31.737Z,1007.6
2017-09-16T11:36:31.770Z,1007.56
2017-09-16T11:37:31.790Z,1007.59
2017-09-16T11:38:31.814Z,1007.57
2017-09-16T11:39:31.841Z,1007.56
2017-09-16T11:40:31.866Z,1007.54
2017-09-16T11:41:31.891Z,1007.54
2017-09-16T11:42:31.918Z,1007.51
2017-09-16T11:43:31.943Z,1007.53
2017-09-16T11:44:31.970Z,1007.54
2017-09-16T11:45:31.994Z,1007.5
2017-09-16T11:46:32.020Z,1007.51
2017-09-16T11:47:32.046Z,1007.51
2017-09-16T11:48:32.073Z,1007.53
2017-09-16T11:49:32.097Z,1007.56
2017-09-16T11:50:32.124Z,1007.53
2017-09-16T11:51:32.149Z,1007.57
2017-09-16T11:52:32.174Z,1007.52
2017-09-16T11:53:32.201Z,1007.56
2017-09-16T11:54:32.227Z,1007.55
2017-09-16T11:55:32.252Z,1007.53
2017-09-16T11:56:32.278Z,1007.52
2017-09-16T11:57:32.303Z,1007.53
2017-09-16T11:58:32.329Z,1007.51
2017-09-16T11:59:32.355Z,1007.56
2017-09-16T12:00:32.381Z,1007.52
2017-09-16T12:01:32.407Z,1007.51
2017-09-16T12:02:32.433Z,1007.53
2017-09-16T12:03:32.457Z,1007.57
2017-09-16T12:05:32.509Z,1007.51
2017-09-16T12:06:32.534Z,1007.51
2017-09-16T12:07:32.560Z,1007.47
2017-09-16T12:08:32.585Z,1007.49
2017-09-16T12:09:32.611Z,1007.47
2017-09-16T12:10:32.637Z,1007.47
2017-09-16T12:11:32.662Z,1007.48
2017-09-16T12:12:32.688Z,1007.45
2017-09-16T12:13:32.713Z,1007.43
2017-09-16T12:14:32.739Z,1007.4
2017-09-16T12:15:32.763Z,1007.39
2017-09-16T12:16:32.790Z,1007.41
2017-09-16T12:17:32.816Z,1007.41
2017-09-16T12:18:32.841Z,1007.43
2017-09-16T12:19:32.865Z,1007.41
2017-09-16T12:21:32.916Z,1007.44
2017-09-16T12:22:32.943Z,1007.44
2017-09-16T12:23:32.966Z,1007.41
2017-09-16T12:24:32.993Z,1007.42
2017-09-16T12:25:33.024Z,1007.42
2017-09-16T12:26:33.044Z,1007.38
2017-09-16T12:27:33.076Z,1007.38
2017-09-16T12:28:33.100Z,1007.39
2017-09-16T12:29:33.118Z,1007.36
2017-09-16T12:30:33.144Z,1007.36
2017-09-16T12:31:33.170Z,1007.35
2017-09-16T12:32:33.195Z,1007.31
2017-09-16T12:33:33.221Z,1007.37
2017-09-16T12:34:33.247Z,1007.33
2017-09-16T12:35:33.272Z,1007.34
2017-09-16T12:37:33.371Z,1007.32
2017-09-16T12:38:33.348Z,1007.32
2017-09-16T12:39:33.374Z,1007.34
2017-09-16T12:40:33.399Z,1007.32
2017-09-16T12:41:33.423Z,1007.35
2017-09-16T12:42:33.449Z,1007.34
2017-09-16T12:43:33.476Z,1007.28
2017-09-16T12:44:33.499Z,1007.3
2017-09-16T12:45:33.526Z,1007.34
2017-09-16T12:46:33.552Z,1007.31
2017-09-16T12:47:33.577Z,1007.3
2017-09-16T12:48:33.603Z,1007.32